Time;durP1;ratioP1;P1;durP2;ratioP2;P2;SDS_P1;SDS_P2;PMS_P1;PMS_P2;Temp;Humidity;BMP_temperature;BMP_pressure;BME280_temperature;BME280_humidity;BME280_pressure;Samples;Min_cycle;Max_cycle;Signal;HPM_P1;HPM_P2
2023/02/25 00:01:14;;;;;;;14.93;3.05;;;6.00;99.90;;;;;;6065681;23;93283;-73
2023/02/25 00:03:42;;;;;;;18.52;3.25;;;6.00;99.90;;;;;;6039406;23;95513;-73
2023/02/25 00:06:14;;;;;;;13.52;2.95;;;6.10;99.90;;;;;;6065681;23;97908;-73
2023/02/25 00:08:44;;;;;;;12.70;2.60;;;6.10;99.90;;;;;;6088073;23;91595;-73
2023/02/25 00:11:12;;;;;;;20.10;2.75;;;6.10;99.90;;;;;;6088502;23;93194;-73
2023/02/25 00:13:41;;;;;;;12.48;2.33;;;6.10;99.90;;;;;;6065279;23;92946;-73
2023/02/25 00:16:08;;;;;;;10.70;2.30;;;6.20;99.90;;;;;;6064514;23;94821;-73
2023/02/25 00:18:38;;;;;;;15.45;2.65;;;6.20;99.90;;;;;;6064370;23;92716;-73
2023/02/25 00:21:08;;;;;;;11.95;2.45;;;6.20;99.90;;;;;;6039154;23;96583;-73
2023/02/25 00:23:35;;;;;;;9.27;1.30;;;6.20;99.90;;;;;;6089458;23;95609;-73
2023/02/25 00:26:05;;;;;;;11.23;1.45;;;6.10;99.90;;;;;;6066637;23;100689;-73
2023/02/25 00:28:34;;;;;;;3.75;1.00;;;6.00;99.90;;;;;;6060544;23;92542;-73
2023/02/25 00:31:06;;;;;;;6.93;1.60;;;5.80;99.90;;;;;;6037424;23;93106;-74
2023/02/25 00:33:33;;;;;;;7.13;1.60;;;5.60;99.90;;;;;;6036413;23;95550;-73
2023/02/25 00:36:04;;;;;;;5.05;1.30;;;5.50;99.90;;;;;;6037601;23;92405;-73
2023/02/25 00:38:31;;;;;;;5.07;1.20;;;5.50;99.90;;;;;;6037957;23;92314;-73
2023/02/25 00:40:58;;;;;;;5.20;1.38;;;5.50;99.90;;;;;;6035924;23;98467;-73
2023/02/25 00:43:24;;;;;;;7.18;1.45;;;5.40;99.90;;;;;;6060038;23;95301;-73
2023/02/25 00:45:51;;;;;;;2.75;1.00;;;5.30;99.90;;;;;;6084514;23;92414;-73
2023/02/25 00:48:21;;;;;;;3.80;1.08;;;5.30;99.90;;;;;;6011933;23;92462;-73
2023/02/25 00:50:48;;;;;;;7.35;1.10;;;5.20;99.90;;;;;;6059388;23;95747;-73
2023/02/25 00:53:15;;;;;;;4.15;1.42;;;5.10;99.90;;;;;;6060221;23;95566;-72
2023/02/25 00:55:42;;;;;;;5.63;1.30;;;5.00;99.90;;;;;;6060088;23;92982;-73
2023/02/25 00:58:09;;;;;;;6.70;1.63;;;5.10;99.90;;;;;;6060909;23;91741;-73
2023/02/25 01:00:36;;;;;;;9.48;1.60;;;5.00;99.90;;;;;;6037717;23;92970;-72
2023/02/25 01:03:17;;;;;;;5.32;1.40;;;5.00;99.90;;;;;;6060377;23;95702;-72
2023/02/25 01:05:48;;;;;;;6.13;1.60;;;5.00;99.90;;;;;;6009705;23;99923;-73
2023/02/25 01:08:17;;;;;;;8.75;1.83;;;5.00;99.90;;;;;;6060376;23;92496;-73
2023/02/25 01:10:45;;;;;;;5.70;1.17;;;5.00;99.90;;;;;;6059723;23;95822;-73
2023/02/25 01:13:13;;;;;;;9.15;1.25;;;5.10;99.90;;;;;;6037355;23;92983;-73
2023/02/25 01:15:40;;;;;;;5.72;1.50;;;5.10;99.90;;;;;;6060294;23;92415;-73
2023/02/25 01:18:07;;;;;;;6.03;1.15;;;5.10;99.90;;;;;;6011332;23;92480;-73
2023/02/25 01:20:38;;;;;;;8.23;1.52;;;5.10;99.90;;;;;;6035748;23;95623;-73
2023/02/25 01:23:05;;;;;;;6.75;1.98;;;5.10;99.90;;;;;;6037609;23;93095;-73
2023/02/25 01:25:33;;;;;;;9.40;1.65;;;5.10;99.90;;;;;;6035745;23;92476;-73
2023/02/25 01:28:00;;;;;;;8.40;1.80;;;5.20;99.90;;;;;;6011567;23;92533;-73
2023/02/25 01:30:27;;;;;;;11.15;1.95;;;5.30;99.90;;;;;;6035833;23;94723;-73
2023/02/25 01:32:54;;;;;;;6.18;1.20;;;5.30;99.90;;;;;;6059640;23;96480;-73
2023/02/25 01:35:21;;;;;;;8.65;1.52;;;5.30;99.90;;;;;;6060071;23;92472;-73
2023/02/25 01:37:49;;;;;;;12.45;1.83;;;5.30;99.90;;;;;;6011310;23;92490;-73
2023/02/25 01:40:17;;;;;;;7.05;1.48;;;5.30;99.90;;;;;;6060092;23;93425;-73
2023/02/25 01:42:45;;;;;;;10.07;1.65;;;5.30;99.90;;;;;;6037321;23;92854;-73
2023/02/25 01:45:18;;;;;;;7.75;1.50;;;5.20;99.90;;;;;;6059934;23;92960;-73
2023/02/25 01:47:50;;;;;;;8.03;1.40;;;5.20;99.90;;;;;;6060695;23;91641;-72
2023/02/25 01:50:24;;;;;;;8.77;2.58;;;5.20;99.90;;;;;;6060009;23;93239;-73
2023/02/25 01:52:51;;;;;;;;;;;5.10;99.90;;;;;;6036191;23;92705;-73
2023/02/25 01:55:18;;;;;;;5.63;1.42;;;5.00;99.90;;;;;;6060238;23;94993;-73
2023/02/25 01:57:46;;;;;;;7.47;1.42;;;5.00;99.90;;;;;;6035515;23;92427;-73
2023/02/25 02:00:16;;;;;;;5.90;1.25;;;5.10;99.90;;;;;;6059641;23;95704;-73
2023/02/25 02:02:46;;;;;;;10.85;1.85;;;5.20;99.90;;;;;;6059594;23;98642;-73
2023/02/25 02:05:14;;;;;;;10.25;1.75;;;5.20;99.90;;;;;;6035344;23;92411;-73
2023/02/25 02:07:41;;;;;;;8.63;1.65;;;5.20;99.90;;;;;;6059486;23;92505;-72
2023/02/25 02:10:09;;;;;;;9.50;1.58;;;5.20;99.90;;;;;;6059551;23;95819;-73
2023/02/25 02:12:42;;;;;;;5.72;1.42;;;5.30;99.90;;;;;;6037542;23;92131;-73
2023/02/25 02:15:12;;;;;;;10.65;1.73;;;5.40;99.90;;;;;;6035407;23;92438;-73
2023/02/25 02:17:59;;;;;;;8.88;1.40;;;5.40;99.90;;;;;;6037562;23;92335;-73
2023/02/25 02:20:38;;;;;;;7.60;1.60;;;5.40;99.90;;;;;;6034019;23;98235;-73
2023/02/25 02:23:36;;;;;;;5.70;1.67;;;5.30;99.90;;;;;;6035124;23;97804;-73
2023/02/25 02:26:16;;;;;;;9.90;1.77;;;5.30;99.90;;;;;;6035803;23;92392;-73
2023/02/25 02:28:49;;;;;;;15.70;2.03;;;5.30;99.90;;;;;;6060347;23;92473;-73
2023/02/25 02:31:43;;;;;;;19.37;2.37;;;5.30;99.90;;;;;;6059803;23;95765;-73
2023/02/25 02:34:25;;;;;;;7.10;1.75;;;5.30;99.90;;;;;;6011258;23;95440;-73
2023/02/25 02:37:25;;;;;;;12.45;2.70;;;5.30;99.90;;;;;;6011860;23;92843;-73
2023/02/25 02:40:22;;;;;;;12.50;3.05;;;5.30;99.90;;;;;;6036257;23;91677;-73
2023/02/25 02:43:28;;;;;;;22.80;3.72;;;5.30;99.90;;;;;;6000693;23;95628;-73
2023/02/25 02:46:19;;;;;;;6.18;1.35;;;5.40;99.90;;;;;;6059087;23;95932;-73
2023/02/25 02:49:11;;;;;;;6.30;2.30;;;5.20;99.90;;;;;;6034578;23;95343;-73
2023/02/25 02:51:56;;;;;;;9.93;1.67;;;5.00;99.90;;;;;;6059961;23;92518;-72
2023/02/25 02:54:29;;;;;;;5.25;1.02;;;4.90;99.90;;;;;;6035299;23;95119;-73
2023/02/25 02:57:00;;;;;;;5.63;1.13;;;4.70;99.90;;;;;;6034707;23;94425;-73
2023/02/25 02:59:36;;;;;;;3.92;1.02;;;4.70;99.90;;;;;;6059755;23;92387;-73
2023/02/25 03:02:09;;;;;;;7.30;1.10;;;4.60;99.90;;;;;;6059912;23;92394;-73
2023/02/25 03:04:40;;;;;;;7.78;1.10;;;4.50;99.90;;;;;;6011494;23;95703;-73
2023/02/25 03:07:11;;;;;;;5.78;1.33;;;4.50;99.90;;;;;;6035253;23;95552;-73
2023/02/25 03:09:53;;;;;;;6.30;1.20;;;4.50;99.90;;;;;;6035839;23;92998;-73
2023/02/25 03:12:20;;;;;;;5.60;1.30;;;4.60;99.90;;;;;;6059117;23;92359;-73
2023/02/25 03:14:47;;;;;;;7.50;1.38;;;4.60;99.90;;;;;;6057895;23;96598;-73
2023/02/25 03:17:23;;;;;;;10.95;1.90;;;4.60;99.90;;;;;;6036502;23;95117;-74
2023/02/25 03:20:06;;;;;;;6.15;2.05;;;4.70;99.90;;;;;;6037364;23;92378;-74
2023/02/25 03:22:38;;;;;;;8.88;1.73;;;4.70;99.90;;;;;;6035362;23;92610;-74
2023/02/25 03:25:34;;;;;;;5.53;1.50;;;4.70;99.90;;;;;;6035196;23;95496;-74
2023/02/25 03:28:03;;;;;;;;;;;4.80;99.90;;;;;;6011465;23;95350;-75
2023/02/25 03:30:39;;;;;;;7.28;1.58;;;4.70;99.90;;;;;;6036609;23;92513;-74
2023/02/25 03:33:13;;;;;;;9.25;1.63;;;4.80;99.90;;;;;;6035693;23;91760;-74
2023/02/25 03:35:42;;;;;;;5.05;0.98;;;4.80;99.90;;;;;;6011156;23;95670;-74
2023/02/25 03:38:19;;;;;;;4.68;1.13;;;4.90;99.90;;;;;;6034680;23;95424;-74
2023/02/25 03:40:48;;;;;;;2.50;1.10;;;4.90;99.90;;;;;;6034218;23;94842;-74
2023/02/25 03:43:31;;;;;;;2.83;0.82;;;4.80;99.90;;;;;;6010636;23;92419;-74
2023/02/25 03:45:59;;;;;;;4.07;1.15;;;4.80;99.90;;;;;;6011142;23;95625;-74
2023/02/25 03:48:28;;;;;;;3.88;0.90;;;4.80;99.90;;;;;;6010503;23;95228;-74
2023/02/25 03:51:00;;;;;;;3.20;1.10;;;4.80;99.90;;;;;;6010830;23;92384;-74
2023/02/25 03:53:30;;;;;;;4.13;0.90;;;4.80;99.90;;;;;;6059023;23;92460;-74
2023/02/25 03:56:09;;;;;;;7.80;1.10;;;4.70;99.90;;;;;;6010595;23;95734;-74
2023/02/25 03:58:41;;;;;;;6.00;1.42;;;4.70;99.90;;;;;;6035006;23;95088;-74
2023/02/25 04:01:15;;;;;;;2.10;1.05;;;4.80;99.90;;;;;;6059002;23;92394;-74
2023/02/25 04:03:43;;;;;;;6.15;1.90;;;4.80;99.90;;;;;;6036892;23;92449;-74
2023/02/25 04:06:11;;;;;;;5.32;1.23;;;4.80;99.90;;;;;;6032881;23;97804;-74
2023/02/25 04:08:39;;;;;;;6.07;1.13;;;4.90;99.90;;;;;;6083335;23;97880;-74
2023/02/25 04:11:06;;;;;;;10.63;1.75;;;4.90;99.90;;;;;;6010841;23;92386;-74
2023/02/25 04:13:33;;;;;;;3.88;1.20;;;4.90;99.90;;;;;;6034842;23;92420;-74
2023/02/25 04:16:00;;;;;;;2.15;1.27;;;4.90;99.90;;;;;;6059008;23;95692;-74
2023/02/25 04:18:27;;;;;;;4.45;0.90;;;4.90;99.90;;;;;;6010397;23;95874;-74
2023/02/25 04:20:54;;;;;;;7.38;1.20;;;4.90;99.90;;;;;;6083679;23;92380;-74
2023/02/25 04:23:21;;;;;;;8.50;2.38;;;4.90;99.90;;;;;;6034525;23;104136;-74
2023/02/25 04:25:48;;;;;;;3.53;0.75;;;5.00;99.90;;;;;;6058993;23;95703;-74
2023/02/25 04:28:15;;;;;;;7.43;1.40;;;5.00;99.90;;;;;;6036216;23;92705;-74
2023/02/25 04:30:43;;;;;;;4.47;1.08;;;5.00;99.90;;;;;;6057708;23;94864;-74
2023/02/25 04:33:10;;;;;;;5.72;1.08;;;5.00;99.90;;;;;;6010671;23;92515;-74
2023/02/25 04:35:38;;;;;;;2.97;0.98;;;5.00;99.90;;;;;;6058664;23;95755;-74
2023/02/25 04:38:05;;;;;;;3.50;0.80;;;4.90;99.90;;;;;;6058870;23;92897;-74
2023/02/25 04:40:35;;;;;;;5.25;0.85;;;4.90;99.90;;;;;;6057911;23;92390;-74
2023/02/25 04:43:02;;;;;;;6.18;1.10;;;4.90;99.90;;;;;;6034675;23;96412;-74
2023/02/25 04:45:29;;;;;;;2.72;0.95;;;4.90;99.90;;;;;;6058660;23;93429;-74
2023/02/25 04:47:59;;;;;;;4.85;1.05;;;4.90;99.90;;;;;;6059113;23;92111;-74
2023/02/25 04:50:26;;;;;;;1.60;0.80;;;4.80;99.90;;;;;;6058890;23;92419;-74
2023/02/25 04:52:53;;;;;;;2.72;0.50;;;4.80;99.90;;;;;;6036586;23;93045;-74
2023/02/25 04:55:20;;;;;;;1.58;0.60;;;4.80;99.90;;;;;;6056763;23;96480;-74
2023/02/25 04:57:47;;;;;;;2.47;0.75;;;4.70;99.90;;;;;;6058635;23;98014;-74
2023/02/25 05:00:22;;;;;;;2.38;0.52;;;4.70;99.90;;;;;;6034373;23;102992;-74
2023/02/25 05:02:50;;;;;;;2.85;0.82;;;4.70;99.90;;;;;;6034700;23;92854;-74
2023/02/25 05:05:17;;;;;;;2.92;0.80;;;4.70;99.90;;;;;;6036007;23;93352;-74
2023/02/25 05:07:44;;;;;;;2.70;1.45;;;4.70;99.90;;;;;;6058695;23;93318;-74
2023/02/25 05:10:13;;;;;;;1.15;0.60;;;4.70;99.90;;;;;;6060167;23;92486;-74
2023/02/25 05:12:41;;;;;;;4.82;0.75;;;4.70;99.90;;;;;;6060098;23;91692;-74
2023/02/25 05:15:09;;;;;;;1.38;0.75;;;4.70;99.90;;;;;;6060276;23;93169;-74
2023/02/25 05:17:36;;;;;;;1.25;0.50;;;4.70;99.90;;;;;;6059930;23;93149;-74
2023/02/25 05:20:11;;;;;;;3.30;0.70;;;4.70;99.90;;;;;;6036555;23;95221;-74
2023/02/25 05:22:40;;;;;;;2.05;0.68;;;4.70;99.90;;;;;;6037383;23;92404;-74
2023/02/25 05:25:08;;;;;;;1.05;0.70;;;4.80;99.90;;;;;;6035397;23;104227;-74
2023/02/25 05:27:35;;;;;;;2.15;0.85;;;4.80;99.90;;;;;;6035287;23;95762;-74
2023/02/25 05:30:03;;;;;;;3.67;1.00;;;4.70;99.90;;;;;;6037793;23;92420;-74
2023/02/25 05:32:30;;;;;;;4.45;0.77;;;4.70;99.90;;;;;;6037486;23;92463;-74
2023/02/25 05:34:58;;;;;;;2.65;0.70;;;4.80;99.90;;;;;;6037586;23;93190;-74
2023/02/25 05:37:25;;;;;;;2.15;0.75;;;4.80;99.90;;;;;;6036159;23;91773;-74
2023/02/25 05:39:52;;;;;;;4.75;0.90;;;4.80;99.90;;;;;;6060242;23;92413;-74
2023/02/25 05:42:19;;;;;;;2.58;0.70;;;4.80;99.90;;;;;;6060064;23;92483;-74
2023/02/25 05:44:46;;;;;;;5.50;0.70;;;4.90;99.90;;;;;;6082897;23;98192;-74
2023/02/25 05:47:13;;;;;;;4.30;1.00;;;4.90;99.90;;;;;;6035602;23;98011;-74
2023/02/25 05:49:41;;;;;;;2.25;0.80;;;4.90;99.90;;;;;;6037413;23;92410;-74
2023/02/25 05:52:09;;;;;;;2.10;0.80;;;4.90;99.90;;;;;;6037419;23;95329;-74
2023/02/25 05:54:37;;;;;;;3.63;0.88;;;4.90;99.90;;;;;;6037176;23;93091;-74
2023/02/25 05:57:04;;;;;;;2.38;0.70;;;4.90;99.90;;;;;;6037389;23;92984;-74
2023/02/25 05:59:31;;;;;;;3.80;0.93;;;4.90;99.90;;;;;;6060003;23;92545;-74
2023/02/25 06:01:58;;;;;;;6.43;0.90;;;4.90;99.90;;;;;;6060320;23;91777;-74
2023/02/25 06:04:25;;;;;;;6.50;1.20;;;4.90;99.90;;;;;;6035413;23;95899;-74
2023/02/25 06:06:52;;;;;;;5.38;1.15;;;5.00;99.90;;;;;;6037339;23;93063;-74
2023/02/25 06:09:20;;;;;;;8.02;1.35;;;5.00;99.90;;;;;;6036157;23;94747;-74
2023/02/25 06:11:48;;;;;;;3.85;1.17;;;5.00;99.90;;;;;;6034960;23;92472;-74
2023/02/25 06:14:15;;;;;;;5.05;0.90;;;4.90;99.90;;;;;;6037426;23;93199;-74
2023/02/25 06:16:43;;;;;;;2.95;0.68;;;5.00;99.90;;;;;;6059552;23;92670;-74
2023/02/25 06:19:11;;;;;;;3.33;0.70;;;5.00;99.90;;;;;;6037432;23;92300;-74
2023/02/25 06:21:38;;;;;;;9.85;1.35;;;4.90;99.90;;;;;;6037162;23;92474;-74
2023/02/25 06:24:05;;;;;;;7.85;1.08;;;5.00;99.90;;;;;;6059767;23;93234;-74
2023/02/25 06:26:34;;;;;;;3.47;0.80;;;5.10;99.90;;;;;;6059941;23;91875;-74
2023/02/25 06:29:01;;;;;;;5.45;0.82;;;5.00;99.90;;;;;;6037559;23;92915;-74
2023/02/25 06:31:28;;;;;;;4.97;1.23;;;5.00;99.90;;;;;;6036695;23;98624;-74
2023/02/25 06:33:55;;;;;;;10.00;1.65;;;5.00;99.90;;;;;;6035695;23;95491;-74
2023/02/25 06:36:22;;;;;;;6.97;1.20;;;4.90;99.90;;;;;;6059931;23;95268;-74
2023/02/25 06:38:49;;;;;;;7.18;1.45;;;4.80;99.90;;;;;;6059744;23;92356;-74
2023/02/25 06:41:20;;;;;;;5.93;1.30;;;4.70;99.90;;;;;;6035510;23;92448;-74
2023/02/25 06:43:51;;;;;;;5.65;1.35;;;4.70;99.90;;;;;;6036744;23;93198;-74
2023/02/25 06:46:21;;;;;;;8.40;2.05;;;4.60;99.90;;;;;;6059831;23;93122;-74
2023/02/25 06:48:48;;;;;;;7.43;1.75;;;4.60;99.90;;;;;;6035647;23;92334;-74
2023/02/25 06:51:15;;;;;;;11.02;1.77;;;4.60;99.90;;;;;;6037760;23;91712;-74
2023/02/25 06:53:44;;;;;;;4.38;0.90;;;4.60;99.90;;;;;;6035188;23;99179;-74
2023/02/25 06:56:12;;;;;;;3.10;1.40;;;4.60;99.90;;;;;;6035272;23;95633;-74
2023/02/25 06:58:40;;;;;;;4.40;1.00;;;4.60;99.90;;;;;;6034052;23;94744;-74
2023/02/25 07:01:09;;;;;;;8.00;1.45;;;4.60;99.90;;;;;;6011232;23;92478;-74
2023/02/25 07:03:36;;;;;;;8.27;1.55;;;4.60;99.90;;;;;;6036831;23;93359;-74
2023/02/25 07:06:03;;;;;;;7.53;1.30;;;4.60;99.90;;;;;;6037036;23;92938;-74
2023/02/25 07:08:31;;;;;;;6.55;1.25;;;4.60;99.90;;;;;;6059759;23;92405;-74
2023/02/25 07:11:17;;;;;;;5.18;1.48;;;4.60;99.90;;;;;;6059405;23;92507;-74
2023/02/25 07:13:48;;;;;;;8.88;1.27;;;4.60;99.90;;;;;;6036506;23;93296;-74
2023/02/25 07:16:15;;;;;;;10.20;1.42;;;4.70;99.90;;;;;;6035689;23;94210;-74
2023/02/25 07:18:43;;;;;;;4.68;1.30;;;4.70;99.90;;;;;;6059650;23;92597;-74
2023/02/25 07:21:14;;;;;;;9.73;2.08;;;4.70;99.90;;;;;;6037385;23;92751;-74
2023/02/25 07:23:42;;;;;;;8.02;1.80;;;4.70;99.90;;;;;;6057785;23;96827;-74
2023/02/25 07:26:11;;;;;;;3.85;1.23;;;4.70;99.90;;;;;;6058886;23;103913;-74
2023/02/25 07:28:38;;;;;;;7.72;2.60;;;4.70;99.90;;;;;;6037114;23;92936;-74
2023/02/25 07:31:12;;;;;;;5.50;1.27;;;4.70;99.90;;;;;;6036632;23;92440;-74
2023/02/25 07:33:40;;;;;;;;;;;4.80;99.90;;;;;;6011785;23;93302;-74
2023/02/25 07:36:08;;;;;;;6.47;1.20;;;4.70;99.90;;;;;;6012360;23;95351;-74
2023/02/25 07:38:36;;;;;;;3.67;1.25;;;4.70;99.90;;;;;;6035682;23;92493;-74
2023/02/25 07:41:05;;;;;;;5.53;1.25;;;4.70;99.90;;;;;;6037516;23;91686;-74
2023/02/25 07:43:32;;;;;;;6.63;1.35;;;4.70;99.90;;;;;;6036831;23;92926;-74
2023/02/25 07:45:59;;;;;;;4.35;1.27;;;4.80;99.90;;;;;;6010723;23;95415;-74
2023/02/25 07:48:26;;;;;;;7.88;1.45;;;4.70;99.90;;;;;;6035702;23;94756;-74
2023/02/25 07:50:54;;;;;;;5.43;0.90;;;4.60;99.90;;;;;;6059383;23;92427;-74
2023/02/25 07:53:21;;;;;;;9.07;1.35;;;4.70;99.90;;;;;;6034838;23;102084;-74
2023/02/25 07:55:49;;;;;;;10.68;2.35;;;4.60;99.90;;;;;;6036556;23;92866;-74
2023/02/25 07:58:16;;;;;;;6.13;2.65;;;4.60;99.90;;;;;;6035205;23;92446;-74
2023/02/25 08:00:45;;;;;;;6.13;2.08;;;4.70;99.90;;;;;;6059527;23;92678;-74
2023/02/25 08:03:12;;;;;;;8.75;2.30;;;4.90;99.90;;;;;;6059284;23;93295;-74
2023/02/25 08:05:39;;;;;;;7.38;2.30;;;5.10;99.90;;;;;;6037257;23;92882;-74
2023/02/25 08:08:06;;;;;;;7.65;2.17;;;5.20;99.90;;;;;;6036941;23;92451;-74
2023/02/25 08:10:33;;;;;;;8.00;2.50;;;5.30;99.90;;;;;;6059402;23;92415;-74
2023/02/25 08:13:00;;;;;;;6.63;2.47;;;5.50;99.90;;;;;;6032712;23;98572;-74
2023/02/25 08:15:27;;;;;;;10.23;3.35;;;5.80;99.90;;;;;;6083265;23;95268;-74
2023/02/25 08:17:54;;;;;;;5.30;2.55;;;6.00;99.90;;;;;;6058897;23;92464;-74
2023/02/25 08:20:21;;;;;;;9.27;2.95;;;6.30;99.90;;;;;;6059111;23;92414;-74
2023/02/25 08:22:48;;;;;;;3.22;2.88;;;6.60;99.90;;;;;;6058606;23;95908;-74
2023/02/25 08:25:16;;;;;;;8.00;1.90;;;6.80;99.90;;;;;;6036261;23;100820;-74
2023/02/25 08:27:43;;;;;;;6.32;1.63;;;6.90;99.90;;;;;;6083375;23;92408;-74
2023/02/25 08:30:10;;;;;;;6.25;1.40;;;6.90;99.90;;;;;;6011305;23;91711;-74
2023/02/25 08:32:37;;;;;;;5.22;1.33;;;6.70;99.90;;;;;;6036511;23;93326;-74
2023/02/25 08:35:05;;;;;;;6.82;1.40;;;6.50;99.90;;;;;;6036196;23;92825;-74
2023/02/25 08:37:32;;;;;;;6.28;1.60;;;6.40;99.90;;;;;;6035236;23;94811;-74
2023/02/25 08:39:59;;;;;;;6.35;1.40;;;6.10;99.90;;;;;;6034390;23;92512;-74
2023/02/25 08:42:26;;;;;;;5.47;1.20;;;5.90;99.90;;;;;;6058769;23;93994;-74
2023/02/25 08:44:53;;;;;;;4.18;1.23;;;5.70;99.90;;;;;;6036879;23;92967;-74
2023/02/25 08:47:20;;;;;;;2.45;1.00;;;5.50;99.90;;;;;;6060453;23;92322;-74
2023/02/25 08:49:47;;;;;;;5.53;1.40;;;5.40;99.90;;;;;;6059362;23;105107;-74
2023/02/25 08:52:14;;;;;;;5.80;1.20;;;5.30;99.90;;;;;;6037499;23;93395;-74
2023/02/25 08:54:41;;;;;;;6.35;1.80;;;5.30;99.90;;;;;;6037995;23;93014;-74
2023/02/25 08:57:08;;;;;;;5.25;1.33;;;5.30;99.90;;;;;;6060192;23;92364;-74
2023/02/25 08:59:35;;;;;;;3.72;1.17;;;5.50;99.90;;;;;;6037791;23;92399;-74
2023/02/25 09:02:06;;;;;;;5.63;1.15;;;5.70;99.90;;;;;;6033879;23;98235;-74
2023/02/25 09:04:33;;;;;;;4.22;1.48;;;5.80;99.90;;;;;;6037481;23;94978;-74
2023/02/25 09:07:01;;;;;;;7.40;1.40;;;5.80;99.90;;;;;;6011592;23;92461;-74
2023/02/25 09:09:28;;;;;;;3.50;1.38;;;6.00;99.90;;;;;;6060263;23;92486;-74
2023/02/25 09:11:55;;;;;;;15.23;2.22;;;6.00;99.90;;;;;;6036819;23;93341;-74
2023/02/25 09:14:22;;;;;;;5.25;1.17;;;6.10;99.90;;;;;;6037500;23;92973;-74
2023/02/25 09:16:49;;;;;;;8.38;1.88;;;6.20;99.90;;;;;;6059728;23;92369;-74
2023/02/25 09:19:17;;;;;;;6.97;1.65;;;6.20;99.90;;;;;;6037800;23;94002;-74
2023/02/25 09:21:46;;;;;;;2.10;1.20;;;6.20;99.90;;;;;;6059992;23;92438;-74
2023/02/25 09:24:15;;;;;;;6.65;1.83;;;6.20;99.90;;;;;;6037209;23;92812;-74
2023/02/25 09:26:42;;;;;;;10.52;1.73;;;6.30;99.90;;;;;;6010101;23;94901;-74
2023/02/25 09:29:09;;;;;;;4.68;1.10;;;6.20;99.90;;;;;;6037336;23;92428;-74
2023/02/25 09:31:36;;;;;;;3.05;1.35;;;6.10;99.90;;;;;;6060020;23;93331;-74
2023/02/25 09:34:06;;;;;;;2.35;1.20;;;5.90;99.90;;;;;;6059634;23;92805;-74
2023/02/25 09:36:34;;;;;;;4.38;1.50;;;5.90;99.90;;;;;;6037692;23;92392;-74
2023/02/25 09:39:01;;;;;;;5.05;1.55;;;5.90;99.90;;;;;;6059816;23;92465;-74
2023/02/25 09:42:06;;;;;;;3.50;1.30;;;5.90;99.30;;;;;;6037342;23;93746;-74
2023/02/25 09:44:40;;;;;;;3.25;1.27;;;5.90;99.60;;;;;;6045696;23;92967;-74
2023/02/25 09:47:16;;;;;;;3.13;1.08;;;5.90;99.90;;;;;;6060005;23;92345;-74
2023/02/25 09:49:46;;;;;;;3.55;1.23;;;6.10;99.30;;;;;;6037588;23;92371;-74
2023/02/25 09:52:21;;;;;;;4.35;1.20;;;6.10;98.40;;;;;;6033618;23;98344;-74
2023/02/25 09:54:54;;;;;;;9.18;1.58;;;6.20;97.30;;;;;;6037101;23;95447;-73
2023/02/25 09:57:22;;;;;;;5.63;1.00;;;6.20;96.00;;;;;;6037670;23;92362;-74
2023/02/25 09:59:52;;;;;;;2.80;1.42;;;6.20;96.70;;;;;;6036081;23;92495;-74
2023/02/25 10:02:34;;;;;;;3.97;1.40;;;6.10;97.50;;;;;;6037013;23;93253;-74
2023/02/25 10:05:18;;;;;;;3.15;1.05;;;6.20;97.10;;;;;;6036949;23;92855;-73
2023/02/25 10:08:11;;;;;;;8.18;1.60;;;6.20;98.80;;;;;;6035911;23;92541;-74
2023/02/25 10:10:55;;;;;;;3.55;1.17;;;6.30;97.60;;;;;;6038112;23;92266;-74
2023/02/25 10:13:53;;;;;;;2.95;1.15;;;6.30;97.70;;;;;;6035265;23;96263;-73
2023/02/25 10:16:37;;;;;;;5.65;1.50;;;6.20;98.20;;;;;;6037126;23;93523;-74
2023/02/25 10:19:47;;;;;;;7.97;1.35;;;6.20;98.70;;;;;;6034230;23;94794;-74
2023/02/25 10:22:22;;;;;;;4.30;1.67;;;6.20;98.70;;;;;;6011121;23;92481;-73
2023/02/25 10:25:21;;;;;;;9.30;1.45;;;6.20;98.10;;;;;;6035465;23;95756;-73
2023/02/25 10:27:51;;;;;;;3.35;1.00;;;6.30;98.00;;;;;;6037347;23;92982;-73
2023/02/25 10:30:33;;;;;;;3.45;1.10;;;6.30;97.80;;;;;;6035091;23;92396;-74
2023/02/25 10:33:04;;;;;;;3.70;1.15;;;6.30;97.50;;;;;;6037052;23;92406;-73
2023/02/25 10:35:37;;;;;;;3.58;1.10;;;6.20;97.00;;;;;;6059683;23;95735;-74
2023/02/25 10:38:04;;;;;;;5.15;1.63;;;6.10;97.30;;;;;;6037328;23;92872;-73
2023/02/25 10:40:32;;;;;;;3.15;1.45;;;6.00;97.70;;;;;;6035815;23;93034;-73
2023/02/25 10:43:01;;;;;;;4.50;1.50;;;6.10;97.70;;;;;;6037290;23;92406;-73
2023/02/25 10:45:31;;;;;;;5.57;1.23;;;6.20;96.50;;;;;;6033445;23;98122;-73
2023/02/25 10:48:16;;;;;;;1.98;0.82;;;6.30;97.10;;;;;;6036909;23;95302;-74
2023/02/25 10:51:20;;;;;;;2.75;1.20;;;6.30;97.40;;;;;;6037458;23;92378;-73
2023/02/25 10:53:56;;;;;;;3.00;0.95;;;6.40;97.50;;;;;;6059786;23;92436;-73
2023/02/25 10:56:51;;;;;;;2.38;0.85;;;6.50;95.70;;;;;;6036631;23;92865;-73
2023/02/25 10:59:29;;;;;;;3.58;1.02;;;6.50;93.00;;;;;;6035087;23;93076;-73
2023/02/25 11:01:59;;;;;;;1.08;0.63;;;6.50;93.90;;;;;;6060041;23;92477;-74
2023/02/25 11:04:38;;;;;;;2.88;0.88;;;6.50;92.60;;;;;;6058525;23;91572;-73
2023/02/25 11:07:31;;;;;;;2.70;0.90;;;6.60;93.20;;;;;;6036171;23;92938;-74
2023/02/25 11:10:13;;;;;;;1.58;0.80;;;6.60;93.30;;;;;;6035963;23;92395;-73
2023/02/25 11:12:52;;;;;;;4.45;1.40;;;6.80;94.10;;;;;;6009987;23;94828;-74
2023/02/25 11:15:25;;;;;;;2.72;0.80;;;6.80;94.90;;;;;;6059529;23;92462;-73
2023/02/25 11:18:26;;;;;;;4.18;1.17;;;6.90;96.00;;;;;;6036865;23;93289;-73
2023/02/25 11:20:56;;;;;;;3.20;0.70;;;7.00;95.60;;;;;;6037048;23;93029;-74
2023/02/25 11:23:55;;;;;;;3.40;0.95;;;6.90;94.40;;;;;;6059322;23;92498;-74
2023/02/25 11:26:38;;;;;;;4.68;0.88;;;6.70;94.30;;;;;;6011089;23;92453;-74
2023/02/25 11:29:17;;;;;;;3.00;1.20;;;6.60;94.70;;;;;;6059593;23;92972;-74
2023/02/25 11:31:49;;;;;;;3.15;1.30;;;6.60;94.60;;;;;;6059035;23;95439;-73
2023/02/25 11:34:23;;;;;;;4.78;1.23;;;6.70;94.80;;;;;;6036908;23;92410;-73
2023/02/25 11:36:51;;;;;;;;;;;6.70;94.40;;;;;;6035969;23;92479;-74
2023/02/25 11:39:33;;;;;;;4.90;1.05;;;6.70;94.80;;;;;;6010977;23;94918;-73
2023/02/25 11:42:17;;;;;;;5.72;1.15;;;6.60;94.20;;;;;;6036765;23;95387;-74
2023/02/25 11:44:44;;;;;;;4.25;1.00;;;6.60;93.80;;;;;;6011140;23;93216;-73
2023/02/25 11:47:33;;;;;;;2.95;0.98;;;6.70;95.30;;;;;;6036685;23;92412;-74
2023/02/25 11:50:22;;;;;;;4.75;1.00;;;6.80;95.40;;;;;;6036680;23;93326;-74
2023/02/25 11:53:03;;;;;;;6.53;1.25;;;6.90;95.10;;;;;;6036771;23;92933;-73
2023/02/25 11:56:10;;;;;;;6.10;0.80;;;6.80;94.00;;;;;;6036948;23;92346;-74
2023/02/25 11:59:12;;;;;;;1.92;0.70;;;6.80;93.90;;;;;;6035757;23;91767;-74
2023/02/25 12:02:02;;;;;;;1.45;0.60;;;6.80;93.60;;;;;;6036746;23;93313;-73
2023/02/25 12:04:47;;;;;;;4.10;0.85;;;6.90;93.10;;;;;;6036340;23;92869;-73
2023/02/25 12:07:45;;;;;;;3.70;1.20;;;7.00;92.50;;;;;;6035241;23;94962;-73
2023/02/25 12:10:57;;;;;;;4.43;1.45;;;7.00;91.80;;;;;;6010614;23;92488;-74
2023/02/25 12:13:29;;;;;;;2.67;1.08;;;6.90;90.80;;;;;;5998982;23;93275;-74
2023/02/25 12:16:18;;;;;;;2.40;0.73;;;6.80;91.30;;;;;;6036707;23;92938;-74
2023/02/25 12:19:06;;;;;;;1.48;0.80;;;6.80;91.30;;;;;;6035929;23;92496;-73
2023/02/25 12:21:53;;;;;;;1.75;0.60;;;6.80;86.70;;;;;;6011746;23;92470;-73
2023/02/25 12:25:15;;;;;;;1.73;1.10;;;6.80;88.70;;;;;;6011529;23;95769;-73
2023/02/25 12:28:00;;;;;;;1.58;0.70;;;6.80;89.60;;;;;;5898057;23;92898;-73
2023/02/25 12:30:30;;;;;;;2.03;0.82;;;6.80;90.20;;;;;;6003637;23;92429;-73
2023/02/25 12:33:13;;;;;;;2.88;0.88;;;6.80;88.20;;;;;;6012096;23;92414;-73
2023/02/25 12:36:06;;;;;;;5.22;1.10;;;6.80;87.90;;;;;;6009993;23;95552;-73
2023/02/25 12:39:09;;;;;;;2.75;0.82;;;6.70;87.20;;;;;;6037356;23;95422;-73
2023/02/25 12:41:49;;;;;;;4.28;0.88;;;6.80;90.50;;;;;;6011683;23;92543;-73
2023/02/25 12:44:42;;;;;;;1.55;0.80;;;6.90;91.40;;;;;;6012277;23;92385;-73
2023/02/25 12:47:33;;;;;;;5.13;1.10;;;7.00;92.30;;;;;;6011737;23;95805;-73
2023/02/25 12:50:25;;;;;;;1.25;0.80;;;7.00;91.60;;;;;;6012169;23;92980;-73
2023/02/25 12:53:04;;;;;;;5.70;1.50;;;7.00;91.80;;;;;;6037836;23;92314;-73
2023/02/25 12:55:47;;;;;;;0.50;0.50;;;7.00;91.10;;;;;;6012129;23;91732;-73
2023/02/25 12:58:35;;;;;;;3.40;0.70;;;6.90;91.00;;;;;;6037606;23;93097;-73
2023/02/25 13:01:17;;;;;;;3.75;1.23;;;6.90;91.80;;;;;;6037521;23;93165;-74
2023/02/25 13:03:53;;;;;;;3.40;0.80;;;7.00;90.70;;;;;;6036525;23;94811;-73
2023/02/25 13:06:55;;;;;;;2.33;0.90;;;7.00;90.90;;;;;;6011459;23;92490;-73
2023/02/25 13:09:32;;;;;;;4.72;1.20;;;7.10;91.90;;;;;;6022405;23;94674;-73
2023/02/25 13:12:39;;;;;;;4.60;0.80;;;7.00;88.20;;;;;;6006575;23;95532;-73
2023/02/25 13:15:19;;;;;;;3.00;0.88;;;7.00;89.10;;;;;;5983752;23;92502;-73
2023/02/25 13:18:24;;;;;;;5.38;1.02;;;7.00;89.10;;;;;;6008760;23;92405;-73
2023/02/25 13:21:03;;;;;;;2.63;1.10;;;7.00;91.30;;;;;;5977974;23;95820;-73
2023/02/25 13:23:55;;;;;;;1.25;0.80;;;7.00;89.80;;;;;;5983269;23;95411;-73
2023/02/25 13:26:58;;;;;;;3.80;0.70;;;7.00;87.70;;;;;;6008779;23;92362;-73
2023/02/25 13:29:36;;;;;;;3.10;1.02;;;6.90;88.20;;;;;;6008141;23;92340;-73
2023/02/25 13:32:16;;;;;;;1.30;0.85;;;6.90;90.10;;;;;;5981998;23;95491;-73